Time;durP1;ratioP1;P1;durP2;ratioP2;P2;SDS_P1;SDS_P2;PMS_P1;PMS_P2;Temp;Humidity;BMP_temperature;BMP_pressure;BME280_temperature;BME280_humidity;BME280_pressure;Samples;Min_cycle;Max_cycle;Signal;HPM_P1;HPM_P2
2021/11/17 02:27:59;;;;;;;12.02;7.75;;;17.70;68.20;;;;;;5029038;28;20036;-77
2021/11/17 02:30:43;;;;;;;12.90;7.97;;;17.70;68.20;;;;;;5011610;28;20485;-76
2021/11/17 02:33:22;;;;;;;11.52;8.00;;;17.70;68.20;;;;;;5033644;28;20040;-76
2021/11/17 02:36:09;;;;;;;12.40;8.00;;;17.70;68.20;;;;;;5047370;28;20393;-77
2021/11/17 02:38:47;;;;;;;12.45;7.78;;;17.70;68.20;;;;;;5047101;28;20029;-78
2021/11/17 02:41:25;;;;;;;10.85;6.68;;;17.70;68.20;;;;;;5033686;28;20025;-78
2021/11/17 02:44:04;;;;;;;11.10;6.93;;;17.70;68.10;;;;;;5028915;28;20087;-78
2021/11/17 02:46:32;;;;;;;10.02;6.95;;;17.70;68.10;;;;;;5040269;28;20033;-77
2021/11/17 02:49:12;;;;;;;10.30;7.10;;;17.70;68.10;;;;;;5033489;28;20104;-77
2021/11/17 02:51:56;;;;;;;12.85;8.30;;;17.70;68.10;;;;;;5036335;28;20033;-77
2021/11/17 02:54:50;;;;;;;11.10;7.13;;;17.70;68.00;;;;;;5048124;28;20021;-78
2021/11/17 02:57:38;;;;;;;12.40;7.38;;;17.80;68.00;;;;;;5049150;28;20052;-77
2021/11/17 03:00:18;;;;;;;10.63;6.82;;;17.80;67.90;;;;;;5048557;28;20078;-77
2021/11/17 03:02:46;;;;;;;12.88;7.65;;;17.80;68.00;;;;;;5041594;28;20037;-79
2021/11/17 03:05:40;;;;;;;11.27;6.93;;;17.70;67.90;;;;;;5047337;28;20453;-78
2021/11/17 03:08:11;;;;;;;9.80;7.18;;;17.70;67.80;;;;;;5047461;28;20036;-77
2021/11/17 03:11:01;;;;;;;10.73;7.68;;;17.80;67.90;;;;;;5047809;28;20029;-77
2021/11/17 03:13:48;;;;;;;11.90;7.10;;;17.80;67.80;;;;;;5048028;28;20029;-77
2021/11/17 03:16:26;;;;;;;12.43;7.60;;;17.80;67.90;;;;;;5036431;28;20388;-77
2021/11/17 03:19:35;;;;;;;10.63;6.95;;;17.70;67.70;;;;;;5033131;28;20029;-77
2021/11/17 03:22:23;;;;;;;11.85;6.75;;;17.80;67.80;;;;;;5039932;28;20094;-77
2021/11/17 03:25:01;;;;;;;11.68;7.43;;;17.70;67.60;;;;;;5028378;28;20033;-76
2021/11/17 03:27:38;;;;;;;11.15;7.03;;;17.80;67.70;;;;;;5028333;28;20086;-77
2021/11/17 03:30:07;;;;;;;10.65;6.32;;;17.70;67.70;;;;;;5043569;28;20029;-77
2021/11/17 03:32:35;;;;;;;11.75;7.18;;;17.80;67.60;;;;;;5040460;28;20029;-77
2021/11/17 03:35:07;;;;;;;12.77;7.40;;;17.80;67.60;;;;;;5028395;28;20489;-77
2021/11/17 03:37:45;;;;;;;11.55;7.30;;;17.80;67.60;;;;;;5026532;28;20025;-76
2021/11/17 03:40:22;;;;;;;11.50;8.10;;;17.80;67.60;;;;;;5028245;28;20029;-76
2021/11/17 03:43:09;;;;;;;9.13;6.03;;;17.80;67.50;;;;;;5028999;28;20149;-76
2021/11/17 03:46:05;;;;;;;11.40;7.07;;;17.80;67.50;;;;;;5037454;28;20513;-76
2021/11/17 03:48:49;;;;;;;9.85;6.68;;;17.80;67.50;;;;;;5031952;28;20025;-77
2021/11/17 03:51:45;;;;;;;10.05;7.20;;;17.80;67.40;;;;;;5032780;28;20037;-77
2021/11/17 03:54:32;;;;;;;10.65;6.32;;;17.80;67.30;;;;;;5042406;28;20144;-77
2021/11/17 03:56:57;;;;;;;11.68;6.70;;;17.70;67.30;;;;;;5035606;28;20481;-76
2021/11/17 03:59:38;;;;;;;11.32;7.18;;;17.80;67.30;;;;;;5038899;28;20104;-77
2021/11/17 04:02:16;;;;;;;9.30;6.22;;;17.80;67.30;;;;;;5047601;28;20052;-76
2021/11/17 04:04:54;;;;;;;11.00;6.57;;;17.70;67.20;;;;;;5031051;28;20053;-76
2021/11/17 04:07:51;;;;;;;8.93;6.10;;;17.70;67.20;;;;;;5031164;28;20033;-77
2021/11/17 04:10:23;;;;;;;10.00;6.22;;;17.70;67.20;;;;;;5031340;28;20025;-77
2021/11/17 04:12:57;;;;;;;9.15;6.18;;;17.70;67.20;;;;;;5031580;28;20072;-77
2021/11/17 04:15:31;;;;;;;8.35;5.75;;;17.70;67.20;;;;;;5031134;28;20026;-76
2021/11/17 04:18:18;;;;;;;9.98;6.32;;;17.70;67.20;;;;;;5040898;28;20033;-77
2021/11/17 04:21:06;;;;;;;10.20;6.63;;;17.70;67.20;;;;;;5049879;28;20018;-76
2021/11/17 04:23:37;;;;;;;10.85;6.47;;;17.70;67.10;;;;;;5051296;28;20036;-77
2021/11/17 04:26:21;;;;;;;10.27;6.25;;;17.70;67.10;;;;;;5048159;28;20025;-77
2021/11/17 04:29:05;;;;;;;8.85;5.82;;;17.70;67.00;;;;;;5050551;28;20111;-77
2021/11/17 04:31:36;;;;;;;10.45;6.32;;;17.70;67.00;;;;;;5036274;28;20469;-77
2021/11/17 04:34:32;;;;;;;9.02;6.10;;;17.70;67.00;;;;;;5045893;28;20021;-77
2021/11/17 04:37:14;;;;;;;9.50;5.77;;;17.70;67.00;;;;;;5035351;28;21304;-78
2021/11/17 04:39:56;;;;;;;8.25;5.72;;;17.70;67.00;;;;;;5030924;28;20120;-77
2021/11/17 04:42:22;;;;;;;9.25;6.15;;;17.80;67.00;;;;;;5030802;28;20041;-77
2021/11/17 04:44:50;;;;;;;8.80;5.60;;;17.70;66.90;;;;;;5049349;28;20388;-77
2021/11/17 04:47:25;;;;;;;8.68;5.68;;;17.70;66.90;;;;;;5030405;28;20045;-78
2021/11/17 04:49:50;;;;;;;9.40;5.55;;;17.70;66.90;;;;;;5031735;28;20026;-77
2021/11/17 04:52:42;;;;;;;9.52;6.07;;;17.70;66.90;;;;;;5030643;28;20085;-78
2021/11/17 04:55:17;;;;;;;7.43;5.55;;;17.70;66.80;;;;;;5021038;28;20038;-77
2021/11/17 04:58:01;;;;;;;8.10;5.68;;;17.70;66.80;;;;;;5039087;28;20033;-77
2021/11/17 05:00:55;;;;;;;8.45;5.55;;;17.70;66.80;;;;;;5030511;28;20029;-77
2021/11/17 05:03:40;;;;;;;10.48;5.95;;;17.70;66.80;;;;;;5006962;28;20061;-77
2021/11/17 05:06:08;;;;;;;7.95;5.07;;;17.70;66.80;;;;;;5030571;28;20105;-79
2021/11/17 05:08:40;;;;;;;8.00;5.60;;;17.70;66.80;;;;;;5030298;28;20098;-76
2021/11/17 05:11:21;;;;;;;9.45;5.85;;;17.70;66.80;;;;;;5028726;28;20117;-77
2021/11/17 05:13:50;;;;;;;8.73;6.15;;;17.70;66.80;;;;;;5030618;28;20017;-77
2021/11/17 05:16:24;;;;;;;8.90;5.55;;;17.70;66.80;;;;;;5038503;28;20032;-77
2021/11/17 05:18:53;;;;;;;6.97;5.10;;;17.70;66.70;;;;;;5050215;28;20021;-76
2021/11/17 05:21:37;;;;;;;8.50;5.20;;;17.70;66.80;;;;;;5038958;28;20328;-77
2021/11/17 05:24:38;;;;;;;8.55;5.50;;;17.70;66.70;;;;;;5030806;28;20032;-76
2021/11/17 05:27:16;;;;;;;7.50;5.20;;;17.70;66.70;;;;;;5044959;28;20028;-78
2021/11/17 05:30:26;;;;;;;9.02;6.20;;;17.70;66.70;;;;;;5049639;28;20489;-77
2021/11/17 05:33:16;;;;;;;8.02;5.38;;;17.70;66.70;;;;;;5046240;28;20093;-76
2021/11/17 05:36:16;;;;;;;9.32;5.47;;;17.70;66.70;;;;;;5029951;28;20572;-75
2021/11/17 05:38:48;;;;;;;7.90;5.13;;;17.70;66.70;;;;;;5021474;28;20123;-76
2021/11/17 05:41:47;;;;;;;8.55;5.72;;;17.70;66.70;;;;;;5029357;28;20037;-76
2021/11/17 05:44:12;;;;;;;6.63;4.95;;;17.60;66.60;;;;;;5035702;28;20184;-77
2021/11/17 05:46:41;;;;;;;8.00;5.40;;;17.70;66.60;;;;;;5039154;28;20041;-79
2021/11/17 05:49:28;;;;;;;8.30;5.43;;;17.70;66.70;;;;;;5043490;28;20064;-78
2021/11/17 05:52:07;;;;;;;6.88;5.00;;;17.70;66.70;;;;;;5046473;28;20512;-79
2021/11/17 05:54:55;;;;;;;8.05;5.55;;;17.60;66.60;;;;;;5049010;28;20489;-79
2021/11/17 05:57:45;;;;;;;6.85;4.78;;;17.60;66.60;;;;;;5034733;28;20041;-78
2021/11/17 06:00:14;;;;;;;7.55;5.43;;;17.60;66.60;;;;;;5030110;28;20427;-78
2021/11/17 06:03:02;;;;;;;8.18;5.10;;;17.60;66.60;;;;;;5045752;28;20043;-78
2021/11/17 06:05:27;;;;;;;7.85;5.22;;;17.60;66.60;;;;;;5029407;28;20036;-78
2021/11/17 06:07:53;;;;;;;9.25;5.88;;;17.60;66.60;;;;;;5046197;28;20025;-76
2021/11/17 06:10:29;;;;;;;8.60;5.28;;;17.60;66.70;;;;;;5034856;28;20029;-77
2021/11/17 06:12:54;;;;;;;;;;;17.60;66.70;;;;;;5046661;28;20077;-76
2021/11/17 06:15:20;;;;;;;8.52;5.25;;;17.60;66.60;;;;;;5047533;28;19921;-76
2021/11/17 06:17:49;;;;;;;11.57;6.30;;;17.60;66.60;;;;;;5039890;28;20033;-77
2021/11/17 06:20:17;;;;;;;7.65;5.47;;;17.60;66.60;;;;;;5028864;28;20092;-77
2021/11/17 06:22:50;;;;;;;8.52;5.38;;;17.60;66.70;;;;;;5036243;28;20473;-77
2021/11/17 06:25:17;;;;;;;7.50;5.38;;;17.60;67.40;;;;;;5047471;28;20073;-77
2021/11/17 06:27:48;;;;;;;8.50;5.20;;;17.60;66.70;;;;;;5048654;28;20017;-76
2021/11/17 06:30:17;;;;;;;8.98;5.90;;;17.60;66.60;;;;;;5048972;28;20026;-76
2021/11/17 06:32:43;;;;;;;8.27;5.32;;;17.60;66.70;;;;;;5030882;28;20036;-76
2021/11/17 06:35:10;;;;;;;7.57;5.20;;;17.60;66.60;;;;;;5044419;28;20032;-77
2021/11/17 06:37:37;;;;;;;8.88;5.97;;;17.60;66.70;;;;;;5048976;28;20017;-78
2021/11/17 06:40:06;;;;;;;7.82;5.28;;;17.60;66.70;;;;;;5041295;28;20032;-77
2021/11/17 06:42:34;;;;;;;9.20;6.18;;;17.60;66.70;;;;;;5028839;28;20042;-77
2021/11/17 06:45:04;;;;;;;7.47;5.20;;;17.50;66.70;;;;;;5029110;28;20049;-77
2021/11/17 06:47:38;;;;;;;7.10;4.93;;;17.50;66.70;;;;;;5090216;27;20398;-78
2021/11/17 06:50:06;;;;;;;8.57;5.78;;;17.60;66.70;;;;;;5088483;28;20025;-76
2021/11/17 06:52:31;;;;;;;7.82;5.60;;;17.60;66.70;;;;;;5088624;28;20024;-76
2021/11/17 06:54:57;;;;;;;7.53;5.40;;;17.50;66.70;;;;;;5088692;28;20020;-77
2021/11/17 06:57:23;;;;;;;7.22;5.13;;;17.60;66.80;;;;;;5088649;28;20024;-77
2021/11/17 06:59:49;;;;;;;7.40;5.10;;;17.60;66.80;;;;;;5088540;28;20029;-76
2021/11/17 07:02:15;;;;;;;7.40;4.97;;;17.60;66.80;;;;;;5103853;28;20032;-76
2021/11/17 07:04:42;;;;;;;8.25;5.38;;;17.60;66.70;;;;;;5090126;28;20046;-75
2021/11/17 07:07:10;;;;;;;7.50;5.03;;;17.60;67.50;;;;;;5108214;28;20063;-75
2021/11/17 07:09:36;;;;;;;7.50;5.20;;;17.60;66.80;;;;;;5108552;28;20050;-76
2021/11/17 07:12:02;;;;;;;7.82;5.30;;;17.60;66.80;;;;;;5108297;28;20035;-74
2021/11/17 07:14:29;;;;;;;8.98;5.80;;;17.70;67.10;;;;;;5108573;28;20499;-74
2021/11/17 07:16:54;;;;;;;8.18;4.90;;;17.70;67.20;;;;;;5094809;28;20039;-74
2021/11/17 07:19:24;;;;;;;6.60;4.63;;;17.70;67.30;;;;;;5087785;28;20032;-75
2021/11/17 07:21:51;;;;;;;7.80;5.28;;;17.70;67.40;;;;;;5087930;28;20162;-76
2021/11/17 07:24:17;;;;;;;9.70;5.07;;;17.70;67.60;;;;;;5069668;28;20500;-77
2021/11/17 07:26:43;;;;;;;7.50;5.00;;;17.80;67.90;;;;;;5087771;28;20032;-76
2021/11/17 07:29:09;;;;;;;9.52;5.63;;;17.80;67.60;;;;;;5087762;28;20032;-79
2021/11/17 07:31:34;;;;;;;8.57;5.65;;;17.80;67.90;;;;;;5087795;28;20028;-79
2021/11/17 07:34:01;;;;;;;9.25;6.55;;;17.90;67.80;;;;;;5087800;28;20051;-79
2021/11/17 07:36:28;;;;;;;9.30;5.95;;;17.90;68.00;;;;;;5092748;28;20056;-79
2021/11/17 07:38:53;;;;;;;9.85;6.15;;;17.90;67.90;;;;;;5101548;28;20051;-79
2021/11/17 07:41:19;;;;;;;10.38;6.35;;;18.00;68.00;;;;;;5105865;28;20059;-78
2021/11/17 07:43:45;;;;;;;10.77;5.80;;;18.00;68.20;;;;;;5106145;28;20028;-78
2021/11/17 07:46:11;;;;;;;10.05;5.85;;;18.00;68.20;;;;;;5102938;28;20040;-79
2021/11/17 07:48:37;;;;;;;10.82;6.00;;;18.10;68.10;;;;;;5108008;28;20031;-80
2021/11/17 07:51:03;;;;;;;9.18;5.28;;;18.10;68.10;;;;;;5104739;28;20027;-77
2021/11/17 07:53:30;;;;;;;8.43;6.60;;;18.10;68.00;;;;;;5099501;28;20020;-80
2021/11/17 07:55:58;;;;;;;10.15;6.05;;;18.10;68.00;;;;;;5105766;28;20096;-78
2021/11/17 07:58:26;;;;;;;9.32;5.57;;;18.10;68.10;;;;;;5095616;28;20035;-77
2021/11/17 08:00:55;;;;;;;8.20;5.75;;;18.10;68.20;;;;;;5092967;28;20024;-77
2021/11/17 08:03:23;;;;;;;9.88;5.30;;;18.10;68.40;;;;;;5093059;28;20097;-77
2021/11/17 08:05:51;;;;;;;9.07;6.18;;;18.00;68.40;;;;;;5093282;28;20480;-77
2021/11/17 08:08:18;;;;;;;11.05;5.97;;;18.00;68.30;;;;;;5093205;28;20030;-78
2021/11/17 08:10:45;;;;;;;8.52;5.82;;;18.00;68.30;;;;;;5058821;28;20029;-77
2021/11/17 08:13:11;;;;;;;7.93;5.40;;;18.00;68.40;;;;;;5073168;28;20112;-77
2021/11/17 08:15:37;;;;;;;9.40;5.78;;;18.00;68.30;;;;;;5073964;28;20074;-77
2021/11/17 08:18:04;;;;;;;9.48;5.95;;;18.10;68.30;;;;;;5080436;28;20119;-77
2021/11/17 08:20:30;;;;;;;8.90;6.03;;;18.10;68.30;;;;;;5055059;28;20400;-78
2021/11/17 08:22:58;;;;;;;10.57;5.43;;;18.10;68.20;;;;;;5073259;28;20021;-78
2021/11/17 08:25:26;;;;;;;9.57;5.90;;;18.00;68.20;;;;;;5070108;28;20032;-78
2021/11/17 08:27:52;;;;;;;10.20;6.05;;;18.00;68.20;;;;;;5093593;28;20034;-77
2021/11/17 08:30:21;;;;;;;10.57;6.00;;;18.00;68.20;;;;;;5093257;28;20446;-77
2021/11/17 08:32:46;;;;;;;10.10;5.97;;;18.00;68.20;;;;;;5093628;28;20024;-78
2021/11/17 08:35:15;;;;;;;8.32;5.80;;;17.90;68.20;;;;;;5093091;28;20438;-79
2021/11/17 08:37:41;;;;;;;9.70;6.50;;;17.90;68.10;;;;;;5093477;28;20497;-79
2021/11/17 08:40:16;;;;;;;7.90;5.88;;;17.90;68.10;;;;;;5091244;28;20049;-79
2021/11/17 08:42:42;;;;;;;9.80;5.85;;;17.90;68.10;;;;;;5075932;28;20078;-78
2021/11/17 08:45:09;;;;;;;8.05;5.93;;;17.90;68.20;;;;;;5072932;28;20373;-78
2021/11/17 08:47:35;;;;;;;10.88;5.28;;;17.90;68.20;;;;;;5072901;28;20043;-79
2021/11/17 08:50:04;;;;;;;8.95;5.88;;;17.90;68.10;;;;;;5072676;28;20046;-79
2021/11/17 08:52:29;;;;;;;7.18;5.03;;;17.80;68.00;;;;;;5072993;28;20025;-79
2021/11/17 08:54:55;;;;;;;7.43;5.60;;;17.90;68.10;;;;;;5082024;28;20099;-77
2021/11/17 08:57:21;;;;;;;9.00;6.13;;;17.80;68.00;;;;;;5092731;28;20052;-77
2021/11/17 08:59:48;;;;;;;7.28;5.57;;;17.80;68.10;;;;;;5074901;28;20384;-79
2021/11/17 09:02:14;;;;;;;9.38;5.72;;;17.80;68.20;;;;;;5075100;28;20051;-79
2021/11/17 09:04:40;;;;;;;9.38;5.82;;;17.80;68.00;;;;;;5087805;28;20507;-78
2021/11/17 09:07:06;;;;;;;8.95;5.53;;;17.80;68.10;;;;;;5067538;28;20036;-79
2021/11/17 09:09:33;;;;;;;9.85;5.53;;;17.80;68.20;;;;;;5086468;28;20032;-79
2021/11/17 09:11:59;;;;;;;9.07;5.55;;;17.80;68.10;;;;;;5073414;28;20086;-80
2021/11/17 09:14:24;;;;;;;7.40;5.53;;;17.80;68.20;;;;;;5072454;28;20016;-79
2021/11/17 09:16:50;;;;;;;7.20;5.07;;;17.80;68.20;;;;;;5089762;28;20028;-79
2021/11/17 09:19:17;;;;;;;9.63;5.07;;;17.80;68.20;;;;;;5092251;28;20387;-79
2021/11/17 09:21:45;;;;;;;8.98;6.13;;;17.80;68.20;;;;;;5090472;28;20115;-79
2021/11/17 09:24:14;;;;;;;9.43;5.70;;;17.70;68.10;;;;;;5069080;28;20012;-80
2021/11/17 09:26:41;;;;;;;8.95;5.82;;;17.70;68.10;;;;;;5071946;28;20090;-79
2021/11/17 09:29:07;;;;;;;7.05;5.00;;;17.70;68.20;;;;;;5075362;28;20525;-78
2021/11/17 09:31:34;;;;;;;8.82;5.38;;;17.70;68.20;;;;;;5071832;28;20062;-78
2021/11/17 09:34:02;;;;;;;7.30;5.05;;;17.70;68.20;;;;;;5060448;28;20027;-77
2021/11/17 09:36:30;;;;;;;8.02;5.32;;;17.70;68.20;;;;;;5092380;28;20035;-77
2021/11/17 09:38:57;;;;;;;7.80;5.25;;;17.70;68.30;;;;;;5092246;28;20023;-78
2021/11/17 09:41:35;;;;;;;8.35;5.13;;;17.70;68.30;;;;;;5090047;28;20039;-78
2021/11/17 09:44:05;;;;;;;6.93;4.80;;;17.70;68.30;;;;;;5092002;28;20027;-79
2021/11/17 09:46:32;;;;;;;7.22;4.68;;;17.60;68.30;;;;;;5091201;28;20036;-79
2021/11/17 09:49:04;;;;;;;7.63;4.70;;;17.60;68.30;;;;;;5073875;28;20056;-78
2021/11/17 09:51:37;;;;;;;8.18;4.70;;;17.60;68.30;;;;;;5091960;28;20028;-78
2021/11/17 09:54:09;;;;;;;9.27;4.82;;;17.70;68.40;;;;;;5091818;28;20547;-78
2021/11/17 09:56:53;;;;;;;6.63;4.60;;;17.60;68.20;;;;;;5089678;28;20059;-79
2021/11/17 09:59:42;;;;;;;6.88;4.40;;;17.60;68.20;;;;;;5091703;28;20491;-79
2021/11/17 10:02:43;;;;;;;6.65;4.07;;;17.70;68.30;;;;;;5091377;28;20026;-79
2021/11/17 10:05:22;;;;;;;6.15;4.60;;;17.60;68.20;;;;;;5071794;28;20126;-80
2021/11/17 10:13:06;;;;;;;7.20;4.50;;;17.60;68.30;;;;;;5071604;28;20025;-78
2021/11/17 10:15:37;;;;;;;5.90;4.25;;;17.60;68.20;;;;;;5071521;28;20024;-80
2021/11/17 10:18:21;;;;;;;7.13;4.75;;;17.60;68.30;;;;;;5071248;28;20077;-79
2021/11/17 10:20:52;;;;;;;6.60;4.45;;;17.60;68.20;;;;;;5071044;28;20024;-78
2021/11/17 10:23:21;;;;;;;5.85;4.15;;;17.60;68.20;;;;;;5053085;28;20024;-78
2021/11/17 10:25:57;;;;;;;5.82;3.83;;;17.60;68.40;;;;;;5072044;28;20116;-79
2021/11/17 10:28:39;;;;;;;5.72;3.75;;;17.60;68.40;;;;;;5071124;28;20025;-79
2021/11/17 10:31:23;;;;;;;5.25;3.75;;;17.60;68.50;;;;;;5070573;28;20032;-80
2021/11/17 10:34:06;;;;;;;6.75;4.13;;;17.60;68.50;;;;;;5071154;28;20036;-80
2021/11/17 10:36:46;;;;;;;9.05;4.15;;;17.60;68.40;;;;;;5090236;28;20024;-80
2021/11/17 10:39:44;;;;;;;7.68;4.45;;;17.60;68.50;;;;;;5090691;28;20020;-79
2021/11/17 10:42:14;;;;;;;4.68;3.75;;;17.60;68.40;;;;;;5070814;28;20448;-80
2021/11/17 10:44:54;;;;;;;4.47;3.45;;;17.60;68.40;;;;;;5070945;28;20020;-79
2021/11/17 10:47:28;;;;;;;5.22;3.72;;;17.60;68.50;;;;;;5070470;28;20037;-80
2021/11/17 10:49:56;;;;;;;7.10;4.20;;;17.60;68.50;;;;;;5073207;28;20020;-78
2021/11/17 10:52:27;;;;;;;5.00;3.55;;;17.50;68.50;;;;;;5091035;28;20032;-79
2021/11/17 10:54:54;;;;;;;5.40;3.83;;;17.50;68.50;;;;;;5090804;28;20428;-79
2021/11/17 10:57:27;;;;;;;5.40;3.65;;;17.60;68.60;;;;;;5090757;28;20103;-78
2021/11/17 10:59:55;;;;;;;7.82;3.78;;;17.60;68.60;;;;;;5090942;28;20021;-77
2021/11/17 11:02:22;;;;;;;5.13;3.42;;;17.60;68.40;;;;;;5090738;28;20384;-78
2021/11/17 11:04:53;;;;;;;4.75;3.67;;;17.60;68.30;;;;;;5082697;28;20028;-79
2021/11/17 11:07:30;;;;;;;5.55;3.30;;;17.60;68.30;;;;;;5070603;28;20040;-78
2021/11/17 11:10:08;;;;;;;4.88;3.13;;;17.60;68.30;;;;;;5082270;28;20454;-78
2021/11/17 11:12:34;;;;;;;4.80;3.30;;;17.70;68.30;;;;;;5088553;28;20157;-79
2021/11/17 11:14:59;;;;;;;4.47;3.22;;;17.70;68.30;;;;;;5091335;28;20055;-79
2021/11/17 11:17:37;;;;;;;6.88;3.17;;;17.70;68.40;;;;;;5085641;28;20492;-80
2021/11/17 11:20:15;;;;;;;7.00;3.40;;;17.70;68.30;;;;;;5083652;28;20507;-78
2021/11/17 11:23:06;;;;;;;13.00;7.78;;;17.70;68.40;;;;;;5090934;28;20028;-78
2021/11/17 11:25:41;;;;;;;23.90;7.13;;;17.80;68.50;;;;;;5075872;28;20028;-77
2021/11/17 11:28:22;;;;;;;23.48;5.85;;;17.90;68.60;;;;;;5052246;28;20036;-78
2021/11/17 11:30:48;;;;;;;22.27;6.63;;;18.40;69.10;;;;;;5074599;28;20488;-79
2021/11/17 11:33:18;;;;;;;17.00;6.28;;;18.50;68.40;;;;;;5087593;28;20074;-80
2021/11/17 11:36:09;;;;;;;16.90;6.32;;;18.50;69.60;;;;;;5092995;28;20541;-81
2021/11/17 11:38:44;;;;;;;15.10;6.03;;;18.50;70.00;;;;;;5094459;28;20503;-79
2021/11/17 11:41:16;;;;;;;17.38;6.13;;;18.60;70.50;;;;;;5077490;28;20035;-80
2021/11/17 11:43:44;;;;;;;15.45;5.95;;;18.60;70.70;;;;;;5077187;28;20037;-81
2021/11/17 11:46:32;;;;;;;22.10;6.45;;;18.60;70.90;;;;;;5073490;28;20510;-80
2021/11/17 11:49:02;;;;;;;18.55;6.30;;;18.60;71.00;;;;;;5074379;28;20021;-81
2021/11/17 11:51:52;;;;;;;19.67;7.40;;;18.70;71.40;;;;;;5075153;28;20476;-80
2021/11/17 11:54:24;;;;;;;19.63;6.97;;;18.80;71.20;;;;;;5075785;28;20012;-79
2021/11/17 11:57:21;;;;;;;18.98;7.22;;;18.80;71.20;;;;;;5069621;28;20040;-78
2021/11/17 11:59:47;;;;;;;17.02;7.05;;;18.90;71.00;;;;;;5032464;28;20040;-79
2021/11/17 12:02:21;;;;;;;22.90;7.05;;;18.90;70.60;;;;;;5071787;28;20025;-81
2021/11/17 12:04:54;;;;;;;19.25;6.43;;;18.90;70.30;;;;;;5070417;28;20074;-81
2021/11/17 12:07:24;;;;;;;13.13;5.18;;;19.00;70.10;;;;;;5081698;28;20553;-81
2021/11/17 12:10:05;;;;;;;18.42;5.88;;;19.10;70.10;;;;;;5077264;28;20017;-81
2021/11/17 12:12:35;;;;;;;11.27;4.82;;;19.20;69.70;;;;;;5058967;28;20040;-80
2021/11/17 12:15:24;;;;;;;15.00;5.22;;;19.30;69.50;;;;;;5072181;28;20020;-81
2021/11/17 12:18:09;;;;;;;15.05;4.53;;;19.60;68.70;;;;;;5059794;28;20020;-79
2021/11/17 12:20:38;;;;;;;18.55;5.03;;;19.80;68.10;;;;;;5070800;28;20052;-79
2021/11/17 12:23:27;;;;;;;10.85;4.40;;;20.10;67.50;;;;;;5071579;28;20392;-80
2021/11/17 12:26:01;;;;;;;9.80;3.90;;;20.90;65.90;;;;;;5069681;28;20506;-80
2021/11/17 12:28:29;;;;;;;11.68;4.22;;;21.90;62.40;;;;;;5061692;28;20032;-79
2021/11/17 12:31:07;;;;;;;11.88;4.38;;;23.90;58.60;;;;;;5077079;28;20091;-80
2021/11/17 12:33:45;;;;;;;9.65;4.15;;;25.50;54.60;;;;;;5077752;28;20032;-80
2021/11/17 12:36:10;;;;;;;9.85;3.22;;;25.90;53.30;;;;;;5072370;28;20114;-81
2021/11/17 12:38:37;;;;;;;10.95;3.80;;;25.10;52.40;;;;;;5072158;28;20075;-81
2021/11/17 12:41:08;;;;;;;10.32;3.45;;;24.60;55.00;;;;;;5070846;28;20070;-80
2021/11/17 12:43:52;;;;;;;10.50;3.60;;;24.50;54.70;;;;;;5073028;28;20028;-78
2021/11/17 12:46:24;;;;;;;10.68;3.97;;;25.40;53.00;;;;;;5072563;28;20066;-80
2021/11/17 12:48:52;;;;;;;7.22;3.60;;;25.30;53.00;;;;;;5073104;28;20077;-81
2021/11/17 12:51:29;;;;;;;8.90;2.63;;;24.90;53.10;;;;;;5072801;28;20064;-81
2021/11/17 12:54:04;;;;;;;6.88;3.45;;;24.60;53.90;;;;;;5072531;28;20115;-81
2021/11/17 12:56:35;;;;;;;9.15;3.22;;;24.00;54.60;;;;;;5072979;28;20373;-80
2021/11/17 12:59:32;;;;;;;7.03;3.50;;;23.00;56.30;;;;;;5072140;28;20059;-78
2021/11/17 13:02:03;;;;;;;9.30;4.18;;;22.40;57.80;;;;;;5052869;28;20508;-79
2021/11/17 13:04:40;;;;;;;6.45;3.00;;;21.90;58.90;;;;;;5035102;28;20049;-80
2021/11/17 13:07:13;;;;;;;6.35;2.90;;;21.50;59.80;;;;;;5052388;28;20033;-81
2021/11/17 13:09:42;;;;;;;9.80;2.80;;;21.20;60.60;;;;;;5063753;28;20322;-80
2021/11/17 13:12:09;;;;;;;9.65;2.92;;;21.00;61.20;;;;;;5072382;28;20031;-78
2021/11/17 13:14:42;;;;;;;6.50;2.67;;;20.90;61.80;;;;;;5076979;28;20111;-81
2021/11/17 13:17:22;;;;;;;7.63;3.05;;;20.70;62.10;;;;;;5071714;28;20067;-77
2021/11/17 13:19:53;;;;;;;8.45;2.97;;;20.60;62.50;;;;;;5054303;28;20426;-80
2021/11/17 13:22:26;;;;;;;8.25;2.50;;;20.40;62.90;;;;;;5071592;28;20089;-81
2021/11/17 13:25:14;;;;;;;7.88;2.92;;;20.30;63.20;;;;;;5073359;28;20024;-80
2021/11/17 13:27:55;;;;;;;6.95;2.80;;;20.20;63.50;;;;;;5092374;28;20032;-80
2021/11/17 13:30:39;;;;;;;6.40;2.50;;;20.10;63.70;;;;;;5074672;28;20074;-78
2021/11/17 13:33:27;;;;;;;6.68;2.35;;;20.00;64.00;;;;;;5071853;28;20533;-78
2021/11/17 13:36:07;;;;;;;7.40;2.45;;;19.90;64.30;;;;;;5071368;28;20028;-78
2021/11/17 13:38:37;;;;;;;6.45;2.20;;;19.80;64.60;;;;;;5071784;28;20086;-78
2021/11/17 13:41:08;;;;;;;6.60;2.28;;;19.80;64.70;;;;;;5082599;28;20039;-78
2021/11/17 13:43:36;;;;;;;8.25;2.90;;;19.80;64.90;;;;;;5091957;28;20058;-78
2021/11/17 13:46:08;;;;;;;7.78;2.92;;;19.70;65.00;;;;;;5091292;28;20036;-78
2021/11/17 13:48:38;;;;;;;6.22;2.70;;;19.70;65.20;;;;;;5091983;28;20016;-78
2021/11/17 13:51:04;;;;;;;6.63;2.45;;;19.60;65.40;;;;;;5078882;28;20504;-78
2021/11/17 13:53:30;;;;;;;10.73;2.90;;;19.60;65.70;;;;;;5071852;28;20016;-78
2021/11/17 13:56:05;;;;;;;6.07;2.45;;;19.50;66.00;;;;;;5072097;28;20119;-76
2021/11/17 13:58:31;;;;;;;11.27;2.60;;;19.50;65.70;;;;;;5053301;28;20039;-76
2021/11/17 14:00:57;;;;;;;8.27;2.90;;;19.50;65.80;;;;;;5071328;28;20028;-77
2021/11/17 14:03:23;;;;;;;7.07;2.30;;;19.40;65.90;;;;;;5071086;28;20024;-79
2021/11/17 14:05:49;;;;;;;7.63;2.53;;;19.30;66.80;;;;;;5070744;28;20412;-76
2021/11/17 14:08:16;;;;;;;5.47;2.42;;;19.30;66.20;;;;;;5069757;28;20480;-79
2021/11/17 14:10:42;;;;;;;7.68;2.53;;;19.30;66.30;;;;;;5071433;28;20111;-78
2021/11/17 14:13:08;;;;;;;7.18;2.50;;;19.30;66.40;;;;;;5070877;28;20496;-79
2021/11/17 14:15:35;;;;;;;7.10;2.47;;;19.30;66.40;;;;;;5070071;28;20056;-76
2021/11/17 14:18:01;;;;;;;7.82;2.53;;;19.20;66.40;;;;;;5071390;28;20025;-75
2021/11/17 14:20:28;;;;;;;8.00;2.30;;;19.20;66.40;;;;;;5071061;28;20020;-76
2021/11/17 14:22:54;;;;;;;5.72;2.22;;;19.20;66.30;;;;;;5073448;28;20031;-79
2021/11/17 14:25:23;;;;;;;5.38;2.25;;;19.20;66.40;;;;;;5067406;28;20031;-78
2021/11/17 14:27:59;;;;;;;7.90;2.50;;;19.10;66.30;;;;;;5068330;28;20040;-79
2021/11/17 14:30:40;;;;;;;6.43;2.30;;;19.10;66.80;;;;;;5078638;28;20034;-77
2021/11/17 14:33:08;;;;;;;6.85;2.15;;;19.10;66.70;;;;;;5091291;28;20050;-78
2021/11/17 14:35:35;;;;;;;7.55;2.42;;;19.10;66.60;;;;;;5090782;28;20055;-78
2021/11/17 14:38:01;;;;;;;10.13;2.67;;;19.10;66.60;;;;;;5090182;28;20024;-78
2021/11/17 14:40:28;;;;;;;12.77;2.80;;;19.00;66.60;;;;;;5091488;28;20046;-78
2021/11/17 14:42:54;;;;;;;8.70;2.42;;;19.00;66.70;;;;;;5091492;28;20416;-78
2021/11/17 14:45:25;;;;;;;9.55;3.30;;;19.00;66.90;;;;;;5090929;28;20046;-78
2021/11/17 14:47:50;;;;;;;9.80;2.40;;;18.90;67.30;;;;;;5091213;28;20812;-78
2021/11/17 14:50:18;;;;;;;7.15;2.60;;;18.80;67.40;;;;;;5090206;28;20107;-78
2021/11/17 14:52:44;;;;;;;5.43;2.17;;;18.80;67.40;;;;;;5091208;28;20020;-78
2021/11/17 14:55:14;;;;;;;8.52;2.65;;;18.80;67.60;;;;;;5090954;28;20027;-78
2021/11/17 14:57:41;;;;;;;5.40;2.00;;;18.80;67.70;;;;;;5091160;28;20024;-78
2021/11/17 15:00:11;;;;;;;6.00;2.88;;;18.80;67.70;;;;;;5090996;28;20027;-78
2021/11/17 15:02:37;;;;;;;4.72;2.15;;;18.80;67.40;;;;;;5091402;28;20118;-78
2021/11/17 15:05:04;;;;;;;7.57;1.98;;;18.80;67.50;;;;;;5090948;28;20472;-78
2021/11/17 15:07:30;;;;;;;6.43;1.70;;;18.70;67.40;;;;;;5091563;28;20407;-78
2021/11/17 15:09:56;;;;;;;7.50;2.85;;;18.80;67.70;;;;;;5079436;28;20020;-78
2021/11/17 15:12:31;;;;;;;8.18;2.85;;;18.70;67.50;;;;;;5074770;28;20037;-78
2021/11/17 15:14:59;;;;;;;6.18;2.22;;;18.70;67.60;;;;;;5075282;28;20020;-78
2021/11/17 15:17:24;;;;;;;5.53;2.10;;;18.60;67.70;;;;;;5065258;28;20028;-78
2021/11/17 15:19:50;;;;;;;5.85;2.35;;;18.60;67.70;;;;;;5094969;28;20519;-78
2021/11/17 15:22:16;;;;;;;7.53;2.78;;;18.60;67.80;;;;;;5094847;28;20504;-78
2021/11/17 15:24:42;;;;;;;7.63;2.67;;;18.50;67.90;;;;;;5094482;28;20024;-78
2021/11/17 15:27:12;;;;;;;7.43;2.90;;;18.50;68.00;;;;;;5092927;28;20028;-78
2021/11/17 15:29:41;;;;;;;5.40;2.03;;;18.50;68.10;;;;;;5094952;28;20034;-78
2021/11/17 15:32:08;;;;;;;6.57;2.25;;;18.40;68.20;;;;;;5094630;28;20022;-77
2021/11/17 15:34:34;;;;;;;8.18;2.00;;;18.40;68.30;;;;;;5084591;28;20024;-77
2021/11/17 15:36:59;;;;;;;6.90;2.67;;;18.40;68.40;;;;;;5074712;28;20028;-77
2021/11/17 15:39:25;;;;;;;6.63;2.97;;;18.30;68.50;;;;;;5073999;28;20025;-77
2021/11/17 15:41:52;;;;;;;6.85;2.15;;;18.30;68.50;;;;;;5075194;28;20064;-77
2021/11/17 15:44:17;;;;;;;6.20;2.42;;;18.30;68.70;;;;;;5065604;28;20379;-77
2021/11/17 15:47:02;;;;;;;6.95;2.20;;;18.20;69.50;;;;;;5094346;28;20040;-77
2021/11/17 15:49:28;;;;;;;6.60;2.60;;;18.20;68.80;;;;;;5094889;28;20476;-78